createdAt,value
2023-03-24T00:10:05.035Z,7.70
2023-03-24T00:20:14.919Z,8.10
2023-03-24T00:30:22.167Z,9.20
2023-03-24T00:40:28.391Z,7.40
2023-03-24T00:50:34.938Z,7.00
2023-03-24T01:00:42.586Z,7.00
2023-03-24T01:10:53.324Z,8.10
2023-03-24T01:20:59.188Z,7.70
2023-03-24T01:31:06.061Z,9.50
2023-03-24T01:41:11.780Z,10.30
2023-03-24T01:51:22.464Z,11.00
2023-03-24T02:01:31.130Z,11.80
2023-03-24T02:11:39.365Z,10.20
2023-03-24T02:22:21.025Z,12.80
2023-03-24T02:33:09.962Z,12.60
2023-03-24T02:43:29.014Z,10.70
2023-03-24T02:53:39.881Z,10.70
2023-03-24T03:03:51.775Z,11.50
2023-03-24T03:14:03.387Z,11.40
2023-03-24T03:24:12.636Z,9.50
2023-03-24T03:34:29.384Z,9.00
2023-03-24T03:44:35.279Z,9.80
2023-03-24T03:54:42.574Z,8.30
2023-03-24T04:05:14.180Z,8.10
2023-03-24T04:15:35.715Z,8.10
2023-03-24T04:25:50.884Z,8.50
2023-03-24T04:36:06.577Z,9.70
2023-03-24T04:46:17.704Z,8.90
2023-03-24T04:56:40.791Z,9.30
2023-03-24T05:06:49.755Z,7.80
2023-03-24T05:16:55.777Z,8.40
2023-03-24T05:27:01.805Z,8.10
2023-03-24T05:37:12.051Z,6.40
2023-03-24T05:47:20.196Z,6.50
2023-03-24T05:57:25.884Z,5.90
2023-03-24T06:07:32.272Z,4.90
2023-03-24T06:17:38.583Z,4.90
2023-03-24T06:27:47.214Z,4.80
2023-03-24T06:37:52.968Z,4.50
2023-03-24T06:47:58.778Z,4.90
2023-03-24T06:58:04.480Z,4.30
2023-03-24T07:18:21.564Z,4.70
2023-03-24T07:28:27.545Z,4.50
2023-03-24T07:38:34.259Z,3.70
2023-03-24T07:48:40.036Z,3.30
2023-03-24T07:58:46.212Z,4.30
2023-03-24T08:08:51.924Z,2.90
2023-03-24T08:18:59.309Z,2.80
2023-03-24T08:29:05.240Z,2.60
2023-03-24T08:39:10.850Z,2.50
2023-03-24T08:49:16.452Z,2.40
2023-03-24T08:59:22.104Z,2.50
2023-03-24T09:09:29.237Z,3.40
2023-03-24T09:19:35.344Z,3.40
2023-03-24T09:29:41.092Z,3.00
2023-03-24T09:39:46.798Z,3.20
2023-03-24T09:49:55.057Z,2.50
2023-03-24T10:00:00.685Z,2.10
2023-03-24T10:10:18.309Z,3.30
2023-03-24T10:20:34.464Z,2.60
2023-03-24T10:30:46.767Z,3.00
2023-03-24T10:40:55.561Z,3.50
2023-03-24T10:51:01.799Z,3.00
2023-03-24T11:01:22.104Z,2.90
2023-03-24T11:11:34.132Z,2.90
2023-03-24T11:21:40.373Z,3.00
2023-03-24T11:31:58.943Z,1.70
2023-03-24T11:42:18.567Z,2.10
2023-03-24T11:52:29.935Z,1.70
2023-03-24T12:02:49.479Z,2.40
2023-03-24T12:13:04.458Z,1.80
2023-03-24T12:23:19.614Z,1.90
2023-03-24T12:33:40.973Z,1.40
2023-03-24T12:43:56.198Z,1.50
2023-03-24T12:54:13.316Z,1.70
2023-03-24T13:04:23.883Z,2.20
2023-03-24T13:14:35.396Z,2.00
2023-03-24T13:24:41.676Z,2.40
2023-03-24T13:34:54.646Z,2.40
2023-03-24T13:45:03.339Z,1.80
2023-03-24T13:55:16.194Z,1.80
2023-03-24T14:06:01.122Z,1.90
2023-03-24T14:16:46.179Z,1.70
2023-03-24T14:26:53.395Z,2.40
2023-03-24T14:37:06.471Z,1.70
2023-03-24T14:47:12.971Z,2.00
2023-03-24T14:57:23.193Z,2.30
2023-03-24T15:07:29.175Z,1.60
2023-03-24T15:17:35.367Z,1.40
2023-03-24T15:27:41.212Z,1.80
2023-03-24T15:37:51.108Z,1.50
2023-03-24T15:47:58.359Z,1.80
2023-03-24T15:58:20.597Z,3.30
2023-03-24T16:08:35.768Z,2.50
2023-03-24T16:18:43.758Z,3.00
2023-03-24T16:38:54.629Z,4.20
2023-03-24T16:49:01.500Z,6.30
2023-03-24T16:59:09.059Z,17.50
2023-03-24T17:09:14.819Z,7.80
2023-03-24T17:19:28.581Z,6.00
2023-03-24T17:29:34.570Z,6.80
2023-03-24T17:39:41.190Z,8.80
2023-03-24T17:49:47.606Z,7.90
2023-03-24T17:59:53.340Z,17.80
2023-03-24T18:09:59.411Z,12.90
2023-03-24T18:20:10.595Z,15.00
2023-03-24T18:30:17.800Z,14.90
2023-03-24T18:40:23.807Z,15.90
2023-03-24T18:50:29.588Z,16.10
2023-03-24T19:00:35.707Z,20.80
2023-03-24T19:10:42.849Z,22.90
2023-03-24T19:20:48.645Z,25.20
2023-03-24T19:30:54.440Z,28.20
2023-03-24T19:41:05.042Z,15.10
2023-03-24T19:51:11.018Z,9.10
2023-03-24T20:01:16.894Z,4.50
2023-03-24T20:11:22.823Z,1.70
2023-03-24T20:21:29.232Z,2.50
2023-03-24T20:31:36.768Z,1.60
2023-03-24T20:41:42.829Z,1.70
2023-03-24T20:51:48.966Z,2.10
2023-03-24T21:01:54.694Z,4.60
2023-03-24T21:12:01.739Z,6.70
2023-03-24T21:22:14.736Z,8.80
2023-03-24T21:32:20.889Z,4.70
2023-03-24T21:42:26.994Z,4.40
2023-03-24T21:52:36.457Z,4.90
2023-03-24T22:02:45.713Z,7.90
2023-03-24T22:12:52.844Z,7.70
2023-03-24T22:23:00.266Z,7.00
2023-03-24T22:33:06.083Z,7.20
2023-03-24T22:43:12.041Z,7.00
2023-03-24T22:53:18.146Z,8.30
2023-03-24T23:03:24.358Z,7.70
2023-03-24T23:13:30.827Z,6.70
2023-03-24T23:23:37.519Z,7.90
2023-03-24T23:33:44.351Z,7.80
2023-03-24T23:43:52.436Z,8.60
2023-03-24T23:53:58.422Z,7.60
